Time;durP1;ratioP1;P1;durP2;ratioP2;P2;SDS_P1;SDS_P2;PMS_P1;PMS_P2;Temp;Humidity;BMP_temperature;BMP_pressure;BME280_temperature;BME280_humidity;BME280_pressure;Samples;Min_cycle;Max_cycle;Signal;HPM_P1;HPM_P2
2020/12/21 00:01:48;;;;;;;;;19.75;18.00;;;;;;;;5021815;28;11482;-83
2020/12/21 00:04:15;;;;;;;;;15.50;15.50;;;;;;;;5026185;28;11551;-84
2020/12/21 00:06:42;;;;;;;;;16.50;12.75;;;;;;;;5026945;28;11630;-83
2020/12/21 00:09:09;;;;;;;;;19.25;19.25;;;;;;;;5022880;28;11537;-84
2020/12/21 00:11:37;;;;;;;;;17.75;15.00;;;;;;;;5024837;28;11556;-83
2020/12/21 00:14:05;;;;;;;;;23.00;23.00;;;;;;;;5023735;28;11597;-83
2020/12/21 00:16:40;;;;;;;;;12.50;10.00;;;;;;;;5021524;28;11596;-81
2020/12/21 00:19:08;;;;;;;;;18.75;16.25;;;;;;;;5023938;28;11532;-82
2020/12/21 00:21:35;;;;;;;;;18.00;18.00;;;;;;;;5022654;28;11547;-81
2020/12/21 00:24:02;;;;;;;;;21.00;21.00;;;;;;;;5026784;28;11556;-83
2020/12/21 00:26:29;;;;;;;;;23.00;19.25;;;;;;;;5024493;28;11601;-83
2020/12/21 00:28:57;;;;;;;;;23.75;17.25;;;;;;;;5023790;28;11553;-83
2020/12/21 00:31:24;;;;;;;;;20.50;18.75;;;;;;;;5023031;28;11478;-83
2020/12/21 00:33:52;;;;;;;;;17.00;15.00;;;;;;;;5023794;28;11548;-81
2020/12/21 00:36:18;;;;;;;;;15.50;15.50;;;;;;;;5023969;28;13731;-84
2020/12/21 00:38:46;;;;;;;;;10.00;8.75;;;;;;;;5025919;28;11557;-84
2020/12/21 00:41:15;;;;;;;;;19.25;15.00;;;;;;;;5023282;28;11637;-82
2020/12/21 00:43:42;;;;;;;;;20.25;18.75;;;;;;;;5023963;28;11534;-80
2020/12/21 00:46:14;;;;;;;;;15.25;14.25;;;;;;;;5025721;28;11516;-85
2020/12/21 00:48:42;;;;;;;;;15.00;14.00;;;;;;;;5014150;28;11596;-82
2020/12/21 00:51:09;;;;;;;;;22.50;21.25;;;;;;;;5030550;28;11543;-84
2020/12/21 00:53:36;;;;;;;;;23.00;20.50;;;;;;;;5018166;28;11648;-84
2020/12/21 00:56:03;;;;;;;;;13.50;13.50;;;;;;;;5027810;28;11621;-85
2020/12/21 00:58:31;;;;;;;;;14.75;12.25;;;;;;;;5027023;28;11530;-85
2020/12/21 01:01:46;;;;;;;;;15.25;15.25;;;;;;;;5028020;28;11507;-84
2020/12/21 01:04:14;;;;;;;;;11.00;11.00;;;;;;;;4997936;28;11673;-85
2020/12/21 01:06:41;;;;;;;;;10.75;9.75;;;;;;;;5022918;28;11735;-83
2020/12/21 01:09:10;;;;;;;;;10.75;10.00;;;;;;;;5025130;28;11153;-85
2020/12/21 01:11:37;;;;;;;;;13.75;12.00;;;;;;;;5020888;28;11487;-82
2020/12/21 01:14:04;;;;;;;;;11.00;9.75;;;;;;;;5025570;28;11620;-84
2020/12/21 01:16:31;;;;;;;;;14.25;13.25;;;;;;;;5026749;28;11264;-83
2020/12/21 01:18:58;;;;;;;;;17.75;12.25;;;;;;;;5056741;28;11229;-84
2020/12/21 01:21:27;;;;;;;;;14.75;13.00;;;;;;;;5026385;28;11321;-87
2020/12/21 01:23:55;;;;;;;;;8.00;7.00;;;;;;;;5024443;28;11155;-86
2020/12/21 01:26:22;;;;;;;;;14.25;9.75;;;;;;;;5035681;28;11012;-85
2020/12/21 01:28:49;;;;;;;;;12.75;10.00;;;;;;;;5027094;28;11108;-86
2020/12/21 01:31:16;;;;;;;;;10.25;10.25;;;;;;;;5029783;28;11186;-83
2020/12/21 01:33:43;;;;;;;;;10.00;10.00;;;;;;;;5027354;28;11910;-81
2020/12/21 01:36:10;;;;;;;;;9.75;9.75;;;;;;;;5031477;28;12058;-85
2020/12/21 01:38:38;;;;;;;;;7.50;7.50;;;;;;;;5023382;28;11215;-83
2020/12/21 01:41:05;;;;;;;;;8.00;8.00;;;;;;;;5023412;28;10937;-84
2020/12/21 01:43:32;;;;;;;;;10.50;7.50;;;;;;;;5025711;28;11020;-80
2020/12/21 01:46:09;;;;;;;;;7.75;7.75;;;;;;;;5022851;28;11145;-83
2020/12/21 01:48:36;;;;;;;;;10.25;9.00;;;;;;;;5016295;28;10885;-81
2020/12/21 01:51:05;;;;;;;;;8.00;8.00;;;;;;;;5025800;28;11825;-80
2020/12/21 01:53:33;;;;;;;;;6.00;6.00;;;;;;;;5024252;28;10854;-80
2020/12/21 01:56:04;;;;;;;;;6.25;6.00;;;;;;;;5023976;28;10881;-83
2020/12/21 01:58:31;;;;;;;;;11.25;6.00;;;;;;;;5022616;28;10735;-82
2020/12/21 02:00:59;;;;;;;;;5.50;3.50;;;;;;;;5027544;28;10769;-81
2020/12/21 02:03:26;;;;;;;;;11.00;7.00;;;;;;;;5023879;28;11131;-82
2020/12/21 02:05:53;;;;;;;;;11.00;7.00;;;;;;;;5022971;28;10731;-81
2020/12/21 02:08:20;;;;;;;;;4.75;2.00;;;;;;;;5031626;28;10709;-79
2020/12/21 02:10:47;;;;;;;;;6.25;6.25;;;;;;;;5029887;28;10613;-82
2020/12/21 02:13:15;;;;;;;;;4.50;4.50;;;;;;;;5026598;28;10728;-82
2020/12/21 02:15:42;;;;;;;;;4.50;4.50;;;;;;;;5026257;28;10638;-81
2020/12/21 02:18:08;;;;;;;;;6.50;6.50;;;;;;;;5017532;28;10607;-83
2020/12/21 02:20:36;;;;;;;;;5.75;5.75;;;;;;;;5025661;28;10677;-83
2020/12/21 02:23:03;;;;;;;;;5.00;5.00;;;;;;;;5025668;28;11534;-82
2020/12/21 02:25:30;;;;;;;;;4.00;4.00;;;;;;;;5026966;28;10749;-82
2020/12/21 02:27:57;;;;;;;;;6.75;5.00;;;;;;;;5024256;28;10703;-81
2020/12/21 02:30:23;;;;;;;;;5.00;5.00;;;;;;;;5024819;28;10420;-83
2020/12/21 02:32:50;;;;;;;;;6.00;6.00;;;;;;;;5023772;28;10473;-83
2020/12/21 02:35:17;;;;;;;;;5.25;5.00;;;;;;;;5029953;28;10612;-84
2020/12/21 02:37:45;;;;;;;;;12.00;10.00;;;;;;;;5024005;28;11438;-83
2020/12/21 02:40:11;;;;;;;;;4.00;4.00;;;;;;;;5024940;28;10742;-82
2020/12/21 02:42:38;;;;;;;;;5.25;5.00;;;;;;;;5024851;28;10549;-82
2020/12/21 02:45:05;;;;;;;;;3.75;3.50;;;;;;;;5027288;28;10583;-82
2020/12/21 02:47:32;;;;;;;;;7.25;5.25;;;;;;;;5024581;28;10482;-82
2020/12/21 02:49:59;;;;;;;;;5.00;4.00;;;;;;;;5022980;28;10581;-81
2020/12/21 02:52:26;;;;;;;;;5.75;4.00;;;;;;;;5024960;28;10555;-82
2020/12/21 02:54:54;;;;;;;;;4.00;3.50;;;;;;;;5028900;28;10673;-82
2020/12/21 02:57:22;;;;;;;;;7.25;7.25;;;;;;;;5023896;28;10579;-81
2020/12/21 02:59:49;;;;;;;;;3.00;3.00;;;;;;;;5016572;28;10749;-81
2020/12/21 03:02:15;;;;;;;;;4.00;4.00;;;;;;;;5024952;28;10450;-81
2020/12/21 03:04:42;;;;;;;;;6.50;3.00;;;;;;;;5023445;28;10616;-81
2020/12/21 03:07:09;;;;;;;;;3.75;3.50;;;;;;;;5023564;28;10515;-80
2020/12/21 03:09:36;;;;;;;;;4.50;2.75;;;;;;;;5024103;28;10506;-83
2020/12/21 03:12:04;;;;;;;;;6.75;4.50;;;;;;;;5027750;28;10413;-79
2020/12/21 03:14:31;;;;;;;;;4.50;4.50;;;;;;;;5027859;28;10569;-82
2020/12/21 03:16:58;;;;;;;;;2.25;2.00;;;;;;;;5022791;28;11196;-84
2020/12/21 03:19:24;;;;;;;;;5.00;5.00;;;;;;;;5024542;28;10455;-83
2020/12/21 03:21:51;;;;;;;;;3.00;3.00;;;;;;;;5024159;28;10468;-83
2020/12/21 03:24:18;;;;;;;;;3.50;2.00;;;;;;;;5056803;28;10393;-84
2020/12/21 03:26:45;;;;;;;;;4.25;4.25;;;;;;;;5045175;28;11205;-85
2020/12/21 03:29:14;;;;;;;;;3.00;3.00;;;;;;;;5022024;28;10403;-84
2020/12/21 03:31:41;;;;;;;;;2.50;2.50;;;;;;;;5024770;28;10386;-85
2020/12/21 03:34:08;;;;;;;;;3.00;3.00;;;;;;;;5023593;28;10325;-81
2020/12/21 03:36:35;;;;;;;;;2.00;2.00;;;;;;;;5019669;28;10386;-82
2020/12/21 03:39:01;;;;;;;;;6.00;3.00;;;;;;;;5023541;28;10264;-82
2020/12/21 03:41:28;;;;;;;;;3.00;1.75;;;;;;;;5022962;28;10274;-80
2020/12/21 03:43:55;;;;;;;;;6.50;5.50;;;;;;;;5023607;28;10352;-81
2020/12/21 03:46:23;;;;;;;;;6.50;3.50;;;;;;;;5022750;28;10535;-83
2020/12/21 03:48:50;;;;;;;;;5.50;2.50;;;;;;;;5024660;28;10414;-82
2020/12/21 03:51:17;;;;;;;;;3.50;3.50;;;;;;;;5031818;28;10351;-82
2020/12/21 03:53:43;;;;;;;;;2.25;2.25;;;;;;;;5021555;28;10253;-81
2020/12/21 03:56:10;;;;;;;;;7.50;4.50;;;;;;;;5023630;28;10368;-84
2020/12/21 03:58:37;;;;;;;;;6.00;3.00;;;;;;;;5020981;28;10313;-81
2020/12/21 04:01:04;;;;;;;;;5.50;3.50;;;;;;;;5023960;28;10234;-82
2020/12/21 04:03:32;;;;;;;;;5.50;5.50;;;;;;;;5055638;28;10309;-84
2020/12/21 04:05:59;;;;;;;;;5.00;4.50;;;;;;;;5024072;28;10347;-82
2020/12/21 04:08:26;;;;;;;;;4.50;4.50;;;;;;;;5022361;28;10329;-82
2020/12/21 04:10:52;;;;;;;;;2.00;0.00;;;;;;;;5023120;28;10199;-80
2020/12/21 04:13:20;;;;;;;;;6.25;5.00;;;;;;;;5022868;28;10117;-82
2020/12/21 04:15:47;;;;;;;;;5.50;3.00;;;;;;;;5028413;28;10357;-81
2020/12/21 04:18:14;;;;;;;;;4.00;3.00;;;;;;;;5026242;28;10326;-82
2020/12/21 04:20:42;;;;;;;;;2.50;2.50;;;;;;;;5032906;28;10320;-83
2020/12/21 04:23:08;;;;;;;;;6.00;6.00;;;;;;;;5026751;28;10261;-82
2020/12/21 04:25:35;;;;;;;;;3.25;2.50;;;;;;;;5038018;28;10389;-82
2020/12/21 04:28:02;;;;;;;;;3.75;3.00;;;;;;;;5026443;28;10383;-81
2020/12/21 04:30:28;;;;;;;;;6.00;4.00;;;;;;;;5027027;28;10346;-79
2020/12/21 04:32:55;;;;;;;;;6.25;4.50;;;;;;;;5034554;28;10355;-81
2020/12/21 04:35:22;;;;;;;;;2.00;2.00;;;;;;;;5026989;28;11062;-75
2020/12/21 04:37:50;;;;;;;;;5.00;5.00;;;;;;;;5026693;28;10355;-83
2020/12/21 04:40:18;;;;;;;;;3.75;2.00;;;;;;;;5027522;28;10330;-76
2020/12/21 04:42:49;;;;;;;;;5.50;5.50;;;;;;;;5026177;28;10592;-78
2020/12/21 04:45:16;;;;;;;;;1.50;1.50;;;;;;;;5030182;28;10558;-80
2020/12/21 04:47:43;;;;;;;;;2.00;2.00;;;;;;;;5027645;28;10497;-81
2020/12/21 04:50:12;;;;;;;;;7.25;4.00;;;;;;;;5022551;28;10331;-81
2020/12/21 04:52:48;;;;;;;;;5.00;2.25;;;;;;;;5028453;28;10484;-80
2020/12/21 04:55:21;;;;;;;;;3.00;3.00;;;;;;;;5034927;28;10251;-81
2020/12/21 04:57:58;;;;;;;;;5.00;2.75;;;;;;;;5027753;28;10413;-80
2020/12/21 05:00:26;;;;;;;;;5.00;4.50;;;;;;;;5024365;28;10379;-80
2020/12/21 05:02:54;;;;;;;;;3.00;3.00;;;;;;;;5026324;28;10534;-78
2020/12/21 05:05:31;;;;;;;;;8.25;5.00;;;;;;;;5024663;28;10436;-78
2020/12/21 05:08:07;;;;;;;;;3.00;3.00;;;;;;;;5030721;28;10444;-76
2020/12/21 05:10:35;;;;;;;;;4.50;4.50;;;;;;;;5028986;28;10461;-78
2020/12/21 05:13:03;;;;;;;;;2.00;2.00;;;;;;;;5024777;28;10489;-76
2020/12/21 05:15:30;;;;;;;;;6.00;3.00;;;;;;;;5035457;28;10557;-79
2020/12/21 05:18:04;;;;;;;;;3.00;2.75;;;;;;;;5017968;28;10564;-79
2020/12/21 05:20:32;;;;;;;;;3.75;2.00;;;;;;;;5025481;28;10382;-78
2020/12/21 05:22:59;;;;;;;;;3.00;3.00;;;;;;;;5017453;28;10493;-78
2020/12/21 05:25:26;;;;;;;;;5.75;2.75;;;;;;;;5025946;28;10502;-78
2020/12/21 05:27:53;;;;;;;;;3.00;3.00;;;;;;;;5025393;28;10545;-76
2020/12/21 05:30:20;;;;;;;;;2.75;2.75;;;;;;;;5025080;28;10480;-77
2020/12/21 05:32:46;;;;;;;;;12.75;9.50;;;;;;;;5025650;28;11247;-77
2020/12/21 05:35:14;;;;;;;;;10.00;10.00;;;;;;;;5024708;28;10695;-79
2020/12/21 05:37:41;;;;;;;;;5.00;5.00;;;;;;;;5032361;28;11407;-76
2020/12/21 05:40:09;;;;;;;;;5.00;5.00;;;;;;;;5021219;28;10489;-76
2020/12/21 05:42:36;;;;;;;;;6.00;6.00;;;;;;;;5025275;28;10565;-78
2020/12/21 05:45:07;;;;;;;;;3.00;3.00;;;;;;;;5024498;28;11379;-77
2020/12/21 05:47:34;;;;;;;;;6.25;5.25;;;;;;;;5024927;28;10464;-76
2020/12/21 05:50:03;;;;;;;;;2.75;2.75;;;;;;;;5024572;28;10495;-75
2020/12/21 05:52:33;;;;;;;;;5.00;5.00;;;;;;;;5023019;28;10364;-78
2020/12/21 05:55:05;;;;;;;;;6.50;5.00;;;;;;;;5025322;28;10448;-77
2020/12/21 05:57:32;;;;;;;;;4.50;3.00;;;;;;;;5023294;28;10552;-75
2020/12/21 06:00:00;;;;;;;;;2.75;2.75;;;;;;;;5025443;28;10409;-76
2020/12/21 06:02:32;;;;;;;;;2.75;2.75;;;;;;;;5028556;28;11051;-75
2020/12/21 06:05:04;;;;;;;;;1.50;1.50;;;;;;;;5027954;28;10393;-75
2020/12/21 06:07:33;;;;;;;;;2.00;2.00;;;;;;;;5024744;28;10479;-77
2020/12/21 06:10:01;;;;;;;;;3.50;2.00;;;;;;;;5024386;28;10527;-76
2020/12/21 06:12:29;;;;;;;;;3.00;2.00;;;;;;;;5025080;28;10394;-75
2020/12/21 06:15:02;;;;;;;;;2.75;2.25;;;;;;;;5024157;28;10501;-77
2020/12/21 06:17:31;;;;;;;;;3.00;3.00;;;;;;;;5024242;28;10488;-77
2020/12/21 06:20:06;;;;;;;;;5.00;2.00;;;;;;;;5007027;28;10370;-77
2020/12/21 06:22:33;;;;;;;;;6.00;3.00;;;;;;;;5024253;28;10344;-76
2020/12/21 06:25:00;;;;;;;;;3.00;3.00;;;;;;;;5025132;28;10421;-77
2020/12/21 06:27:38;;;;;;;;;3.50;3.50;;;;;;;;5024702;28;10424;-77
2020/12/21 06:30:06;;;;;;;;;3.50;3.50;;;;;;;;5025043;28;10412;-77
2020/12/21 06:32:34;;;;;;;;;6.50;5.00;;;;;;;;5025894;28;10558;-76
2020/12/21 06:35:03;;;;;;;;;6.00;4.50;;;;;;;;5060160;28;10429;-84
2020/12/21 06:37:30;;;;;;;;;2.00;2.00;;;;;;;;5027303;28;10430;-83
2020/12/21 06:40:01;;;;;;;;;3.50;3.50;;;;;;;;5023318;28;10481;-83
2020/12/21 06:42:28;;;;;;;;;6.75;6.75;;;;;;;;5025064;28;10246;-83
2020/12/21 06:44:57;;;;;;;;;5.25;5.25;;;;;;;;5021940;28;10547;-78
2020/12/21 06:47:25;;;;;;;;;6.25;6.25;;;;;;;;5023992;28;10527;-83
2020/12/21 06:49:53;;;;;;;;;5.50;5.50;;;;;;;;5018536;28;10435;-81
2020/12/21 06:52:21;;;;;;;;;3.50;3.50;;;;;;;;5024067;28;11216;-81
2020/12/21 06:54:50;;;;;;;;;3.50;3.50;;;;;;;;5027300;28;10493;-82
2020/12/21 06:57:17;;;;;;;;;5.00;3.00;;;;;;;;5029436;28;10510;-82
2020/12/21 06:59:44;;;;;;;;;5.25;5.25;;;;;;;;5024026;28;11082;-82
2020/12/21 07:02:12;;;;;;;;;6.00;4.00;;;;;;;;5022621;28;10467;-81
2020/12/21 07:04:38;;;;;;;;;5.75;3.00;;;;;;;;5023643;28;10335;-82
2020/12/21 07:07:07;;;;;;;;;5.25;3.00;;;;;;;;5023462;28;11131;-82
2020/12/21 07:09:36;;;;;;;;;4.50;4.50;;;;;;;;5030613;28;10333;-83
2020/12/21 07:12:05;;;;;;;;;8.00;4.50;;;;;;;;5022435;28;10405;-73
2020/12/21 07:14:35;;;;;;;;;2.25;2.25;;;;;;;;5019128;28;10283;-74
2020/12/21 07:17:04;;;;;;;;;6.25;3.00;;;;;;;;5021141;28;10305;-73
2020/12/21 07:19:32;;;;;;;;;3.50;3.50;;;;;;;;5021956;28;10247;-73
2020/12/21 07:21:59;;;;;;;;;5.00;5.00;;;;;;;;5030462;28;10343;-72
2020/12/21 07:24:26;;;;;;;;;6.00;2.50;;;;;;;;5022379;28;10202;-72
2020/12/21 07:26:54;;;;;;;;;2.00;2.00;;;;;;;;5008086;28;10489;-73
2020/12/21 07:29:21;;;;;;;;;2.00;2.00;;;;;;;;5021438;28;10446;-72
2020/12/21 07:31:48;;;;;;;;;3.00;3.00;;;;;;;;5021478;28;10334;-72
2020/12/21 07:34:16;;;;;;;;;3.00;3.00;;;;;;;;5021904;28;10348;-73
2020/12/21 07:36:43;;;;;;;;;3.00;3.00;;;;;;;;5021402;28;10305;-71
2020/12/21 07:39:11;;;;;;;;;3.50;3.50;;;;;;;;5024788;28;10315;-74
2020/12/21 07:41:41;;;;;;;;;3.00;3.00;;;;;;;;5026355;28;10339;-73
2020/12/21 07:44:10;;;;;;;;;7.50;7.50;;;;;;;;5023315;28;10197;-73
2020/12/21 07:46:41;;;;;;;;;5.00;4.00;;;;;;;;5022582;28;10569;-73
2020/12/21 07:49:09;;;;;;;;;6.00;6.00;;;;;;;;5022629;28;10351;-73
2020/12/21 07:51:39;;;;;;;;;2.75;2.75;;;;;;;;5024178;28;10408;-72
2020/12/21 07:54:07;;;;;;;;;5.00;5.00;;;;;;;;5026086;28;10335;-72
2020/12/21 07:56:34;;;;;;;;;5.50;5.50;;;;;;;;5038154;28;10446;-72
2020/12/21 07:59:18;;;;;;;;;4.00;4.00;;;;;;;;5025683;28;10344;-72
2020/12/21 08:01:45;;;;;;;;;3.00;3.00;;;;;;;;5027343;28;11128;-72
2020/12/21 08:04:17;;;;;;;;;6.25;5.75;;;;;;;;5025968;28;10468;-73
2020/12/21 08:06:45;;;;;;;;;4.00;4.00;;;;;;;;5025648;28;10415;-72
2020/12/21 08:09:11;;;;;;;;;5.50;5.25;;;;;;;;5026744;28;10644;-73
2020/12/21 08:11:38;;;;;;;;;5.00;2.50;;;;;;;;5024539;28;11179;-72
2020/12/21 08:14:08;;;;;;;;;7.00;7.00;;;;;;;;5023395;28;10391;-73
2020/12/21 08:16:36;;;;;;;;;5.00;3.00;;;;;;;;5025973;28;10417;-74
2020/12/21 08:19:02;;;;;;;;;5.00;2.75;;;;;;;;5026557;28;10980;-74
2020/12/21 08:21:29;;;;;;;;;5.25;3.00;;;;;;;;5027331;28;10198;-73
2020/12/21 08:23:58;;;;;;;;;1.50;1.50;;;;;;;;5025526;28;10223;-72
2020/12/21 08:26:25;;;;;;;;;2.00;2.00;;;;;;;;5026486;28;10179;-71
2020/12/21 08:28:54;;;;;;;;;6.00;4.00;;;;;;;;5025089;28;10151;-72
2020/12/21 08:31:22;;;;;;;;;5.00;2.25;;;;;;;;5025440;28;10150;-74
2020/12/21 08:34:01;;;;;;;;;5.00;3.00;;;;;;;;5024243;28;10140;-72
2020/12/21 08:36:31;;;;;;;;;0.00;0.00;;;;;;;;5018488;28;10231;-72
2020/12/21 08:39:23;;;;;;;;;0.25;0.25;;;;;;;;5024287;28;9956;-72
2020/12/21 08:41:54;;;;;;;;;0.75;0.00;;;;;;;;5023724;28;10114;-73
2020/12/21 08:44:22;;;;;;;;;3.00;2.00;;;;;;;;5024677;28;10019;-74
2020/12/21 08:46:50;;;;;;;;;2.25;2.25;;;;;;;;5023787;28;10156;-73
2020/12/21 08:49:18;;;;;;;;;5.00;2.00;;;;;;;;5025223;28;9911;-73
2020/12/21 08:51:45;;;;;;;;;5.25;1.75;;;;;;;;5056775;28;10229;-73
2020/12/21 08:54:12;;;;;;;;;0.00;0.00;;;;;;;;5022821;28;10044;-72
2020/12/21 08:56:39;;;;;;;;;2.00;2.00;;;;;;;;5025817;28;10084;-72
2020/12/21 08:59:06;;;;;;;;;2.00;2.00;;;;;;;;5023208;28;10631;-73
2020/12/21 09:01:33;;;;;;;;;2.75;2.75;;;;;;;;5022613;28;9932;-73
2020/12/21 09:04:00;;;;;;;;;3.00;1.25;;;;;;;;5018958;28;10863;-72
2020/12/21 09:06:28;;;;;;;;;3.25;1.00;;;;;;;;5021927;28;10963;-75
2020/12/21 09:08:55;;;;;;;;;0.00;0.00;;;;;;;;5021584;28;10030;-72
2020/12/21 09:11:22;;;;;;;;;1.00;1.00;;;;;;;;5023007;28;9801;-71
2020/12/21 09:13:49;;;;;;;;;2.25;2.00;;;;;;;;5024339;28;10056;-71
2020/12/21 09:16:20;;;;;;;;;3.75;2.00;;;;;;;;5023313;28;9875;-72
2020/12/21 09:18:47;;;;;;;;;1.00;1.00;;;;;;;;5024563;28;9880;-74
2020/12/21 09:21:23;;;;;;;;;2.75;2.00;;;;;;;;5026010;28;10109;-73
2020/12/21 09:23:52;;;;;;;;;2.25;2.25;;;;;;;;5025101;28;9891;-74
2020/12/21 09:26:19;;;;;;;;;1.00;1.00;;;;;;;;5023460;28;10168;-74
2020/12/21 09:28:46;;;;;;;;;2.25;2.00;;;;;;;;5024707;28;10075;-75
2020/12/21 09:31:14;;;;;;;;;3.00;1.75;;;;;;;;5024899;28;9965;-74
2020/12/21 09:33:42;;;;;;;;;3.50;2.00;;;;;;;;5024274;28;10131;-75
2020/12/21 09:36:09;;;;;;;;;2.25;1.50;;;;;;;;5022430;28;10126;-74
2020/12/21 09:38:36;;;;;;;;;2.00;2.00;;;;;;;;5022869;28;9949;-71
2020/12/21 09:41:05;;;;;;;;;1.00;1.00;;;;;;;;5024193;28;10137;-74
2020/12/21 09:43:33;;;;;;;;;1.00;1.00;;;;;;;;5021645;28;10015;-74
2020/12/21 09:45:59;;;;;;;;;1.50;1.50;;;;;;;;5025262;28;10148;-73
2020/12/21 09:48:26;;;;;;;;;3.50;1.75;;;;;;;;5024244;28;10322;-74
2020/12/21 09:50:53;;;;;;;;;2.50;1.00;;;;;;;;5020874;28;10118;-73
2020/12/21 09:53:20;;;;;;;;;1.00;1.00;;;;;;;;5022989;28;9920;-73
2020/12/21 09:55:47;;;;;;;;;1.00;1.00;;;;;;;;5022805;28;9942;-73
2020/12/21 09:58:15;;;;;;;;;1.00;1.00;;;;;;;;5023298;28;10033;-74
2020/12/21 10:00:42;;;;;;;;;1.00;1.00;;;;;;;;5020724;28;9901;-74
2020/12/21 10:03:08;;;;;;;;;0.00;0.00;;;;;;;;5023080;28;10067;-73
2020/12/21 10:05:35;;;;;;;;;0.00;0.00;;;;;;;;5022104;28;9886;-74
2020/12/21 10:08:02;;;;;;;;;0.75;0.75;;;;;;;;5022191;28;9931;-70
2020/12/21 10:10:29;;;;;;;;;1.00;1.00;;;;;;;;5020554;28;10031;-70
2020/12/21 10:12:56;;;;;;;;;1.75;1.75;;;;;;;;5018887;28;9856;-70
2020/12/21 10:15:23;;;;;;;;;1.75;1.00;;;;;;;;5015585;28;10204;-70
2020/12/21 10:17:50;;;;;;;;;0.00;0.00;;;;;;;;5020217;28;10048;-72
2020/12/21 10:20:17;;;;;;;;;2.75;2.75;;;;;;;;5023079;28;10022;-70
2020/12/21 10:22:44;;;;;;;;;1.00;1.00;;;;;;;;5017485;28;10106;-72
2020/12/21 10:25:10;;;;;;;;;2.00;2.00;;;;;;;;5022538;28;10042;-73
2020/12/21 10:27:37;;;;;;;;;0.00;0.00;;;;;;;;5021316;28;10153;-72
2020/12/21 10:30:04;;;;;;;;;1.00;1.00;;;;;;;;5019214;28;9866;-74
2020/12/21 10:32:32;;;;;;;;;1.50;1.00;;;;;;;;5022106;28;10025;-72
2020/12/21 10:34:59;;;;;;;;;0.75;0.75;;;;;;;;5022128;28;9981;-73
2020/12/21 10:37:25;;;;;;;;;1.00;1.00;;;;;;;;5023014;28;10032;-73
2020/12/21 10:39:52;;;;;;;;;0.50;0.50;;;;;;;;5021684;28;9945;-73
2020/12/21 10:42:20;;;;;;;;;1.50;1.50;;;;;;;;5020529;28;9917;-73
2020/12/21 10:44:47;;;;;;;;;1.00;1.00;;;;;;;;5022625;28;10032;-72
2020/12/21 10:47:14;;;;;;;;;1.00;1.00;;;;;;;;5023121;28;10008;-73
2020/12/21 10:49:41;;;;;;;;;1.00;1.00;;;;;;;;5023254;28;10464;-72
2020/12/21 10:52:09;;;;;;;;;1.75;1.00;;;;;;;;5019786;28;9939;-73
2020/12/21 10:54:36;;;;;;;;;0.75;0.75;;;;;;;;5019486;28;10053;-73
2020/12/21 10:57:05;;;;;;;;;2.25;2.25;;;;;;;;5046383;28;10775;-72
2020/12/21 10:59:32;;;;;;;;;1.75;1.75;;;;;;;;5051338;28;10122;-72
2020/12/21 11:01:59;;;;;;;;;0.75;0.75;;;;;;;;5053769;28;10246;-71
2020/12/21 11:04:26;;;;;;;;;1.00;1.00;;;;;;;;5019453;28;9932;-72
2020/12/21 11:06:55;;;;;;;;;2.00;2.00;;;;;;;;5020912;28;10090;-74
2020/12/21 11:09:22;;;;;;;;;3.00;1.25;;;;;;;;5020794;28;10116;-74
2020/12/21 11:11:50;;;;;;;;;3.75;3.00;;;;;;;;5023899;28;10136;-75
2020/12/21 11:14:16;;;;;;;;;0.75;0.75;;;;;;;;5019615;28;10099;-74
2020/12/21 11:16:49;;;;;;;;;1.25;1.25;;;;;;;;5024502;28;10026;-74
2020/12/21 11:19:16;;;;;;;;;4.50;2.25;;;;;;;;5024066;28;10090;-74
2020/12/21 11:21:43;;;;;;;;;1.00;1.00;;;;;;;;5023180;28;10263;-75
2020/12/21 11:24:11;;;;;;;;;1.25;1.25;;;;;;;;5021620;28;10753;-74
2020/12/21 11:26:37;;;;;;;;;1.50;1.50;;;;;;;;5022527;28;9943;-72
2020/12/21 11:29:05;;;;;;;;;1.75;1.00;;;;;;;;5023147;28;10822;-73
2020/12/21 11:31:32;;;;;;;;;2.00;0.75;;;;;;;;5022554;28;9989;-73
2020/12/21 11:33:59;;;;;;;;;1.00;1.00;;;;;;;;5023175;28;9964;-73
2020/12/21 11:36:26;;;;;;;;;1.50;1.00;;;;;;;;5022606;28;10040;-73
2020/12/21 11:38:53;;;;;;;;;2.00;2.00;;;;;;;;5023071;28;10024;-73
2020/12/21 11:41:21;;;;;;;;;1.25;1.25;;;;;;;;5022192;28;10042;-73
2020/12/21 11:43:48;;;;;;;;;1.00;1.00;;;;;;;;5019755;28;10042;-73
2020/12/21 11:46:15;;;;;;;;;1.25;1.25;;;;;;;;5023922;28;9855;-72
2020/12/21 11:48:42;;;;;;;;;2.50;1.00;;;;;;;;5020823;28;9859;-73
2020/12/21 11:51:09;;;;;;;;;0.50;0.50;;;;;;;;5020940;28;10786;-74
2020/12/21 11:53:36;;;;;;;;;1.00;1.00;;;;;;;;5014324;28;10054;-73
2020/12/21 11:56:03;;;;;;;;;1.00;1.00;;;;;;;;5022685;28;9937;-73
2020/12/21 11:58:31;;;;;;;;;1.00;1.00;;;;;;;;5015221;28;9856;-74
2020/12/21 12:00:58;;;;;;;;;3.00;1.25;;;;;;;;5021319;28;9744;-72
2020/12/21 12:03:25;;;;;;;;;0.75;0.75;;;;;;;;5024473;28;10054;-73
2020/12/21 12:05:51;;;;;;;;;1.00;1.00;;;;;;;;5020352;28;9860;-73
2020/12/21 12:08:18;;;;;;;;;0.25;0.25;;;;;;;;5019331;28;10047;-74
2020/12/21 12:10:45;;;;;;;;;1.00;1.00;;;;;;;;5018276;28;9775;-73
2020/12/21 12:13:12;;;;;;;;;1.50;1.00;;;;;;;;5019812;28;9810;-71
2020/12/21 12:15:40;;;;;;;;;0.25;0.25;;;;;;;;5019233;28;10616;-71
2020/12/21 12:18:07;;;;;;;;;1.25;1.00;;;;;;;;5020325;28;9767;-71
2020/12/21 12:20:34;;;;;;;;;1.00;1.00;;;;;;;;5021322;28;9892;-70
2020/12/21 12:23:01;;;;;;;;;2.00;2.00;;;;;;;;5019986;28;9951;-70
2020/12/21 12:25:28;;;;;;;;;2.00;0.25;;;;;;;;5021417;28;9964;-71
2020/12/21 12:27:55;;;;;;;;;1.50;1.50;;;;;;;;5018589;28;9942;-70
2020/12/21 12:30:22;;;;;;;;;1.00;1.00;;;;;;;;5020608;28;9866;-70
2020/12/21 12:32:51;;;;;;;;;1.00;1.00;;;;;;;;5021443;28;9932;-71
2020/12/21 12:35:18;;;;;;;;;1.00;1.00;;;;;;;;5020495;28;10021;-71
2020/12/21 12:37:45;;;;;;;;;1.00;1.00;;;;;;;;5019748;28;9969;-72
2020/12/21 12:40:12;;;;;;;;;1.00;1.00;;;;;;;;5022174;28;10646;-71
2020/12/21 12:42:42;;;;;;;;;0.00;0.00;;;;;;;;5020875;28;9849;-72
2020/12/21 12:45:09;;;;;;;;;0.75;0.75;;;;;;;;5023883;28;9940;-71
2020/12/21 12:47:36;;;;;;;;;0.50;0.50;;;;;;;;5024851;28;9833;-72
2020/12/21 12:50:05;;;;;;;;;0.00;0.00;;;;;;;;5024710;28;9849;-71
2020/12/21 12:52:34;;;;;;;;;1.00;1.00;;;;;;;;5022913;28;9719;-70
2020/12/21 12:55:01;;;;;;;;;1.00;1.00;;;;;;;;5026130;28;9787;-71
2020/12/21 12:57:28;;;;;;;;;1.00;1.00;;;;;;;;5022543;28;9798;-73
2020/12/21 12:59:55;;;;;;;;;1.00;1.00;;;;;;;;5025670;28;9852;-72
2020/12/21 13:02:22;;;;;;;;;1.00;1.00;;;;;;;;5023319;28;9893;-71
2020/12/21 13:04:49;;;;;;;;;1.25;1.25;;;;;;;;5025324;28;9906;-72
2020/12/21 13:07:16;;;;;;;;;1.00;1.00;;;;;;;;5022885;28;10426;-72
2020/12/21 13:09:43;;;;;;;;;2.00;0.00;;;;;;;;5025519;28;9838;-72
2020/12/21 13:12:11;;;;;;;;;0.25;0.25;;;;;;;;5023233;28;9783;-72
2020/12/21 13:14:37;;;;;;;;;1.00;1.00;;;;;;;;5024350;28;9786;-72
2020/12/21 13:17:04;;;;;;;;;1.00;1.00;;;;;;;;5024116;28;9720;-72
2020/12/21 13:19:31;;;;;;;;;1.00;1.00;;;;;;;;5023445;28;9791;-69
2020/12/21 13:21:58;;;;;;;;;1.00;1.00;;;;;;;;5025183;28;9795;-70
2020/12/21 13:24:26;;;;;;;;;1.00;1.00;;;;;;;;5025159;28;9799;-72
2020/12/21 13:26:53;;;;;;;;;1.00;1.00;;;;;;;;5025041;28;9659;-71
2020/12/21 13:29:20;;;;;;;;;2.75;2.75;;;;;;;;5019917;28;10422;-71
2020/12/21 13:31:48;;;;;;;;;2.00;2.00;;;;;;;;5027400;28;9597;-71
2020/12/21 13:34:14;;;;;;;;;1.00;1.00;;;;;;;;5024693;28;9856;-70
2020/12/21 13:36:42;;;;;;;;;1.00;1.00;;;;;;;;5023064;28;9706;-71
2020/12/21 13:39:09;;;;;;;;;1.25;1.25;;;;;;;;5025321;28;9935;-70
2020/12/21 13:41:36;;;;;;;;;2.50;1.00;;;;;;;;5022942;28;9968;-71
2020/12/21 13:44:03;;;;;;;;;5.25;3.25;;;;;;;;5020007;28;10115;-71
2020/12/21 13:46:30;;;;;;;;;4.25;4.25;;;;;;;;5024898;28;10214;-72
2020/12/21 13:48:57;;;;;;;;;6.25;6.25;;;;;;;;5019900;28;10620;-72
2020/12/21 13:51:26;;;;;;;;;7.50;7.50;;;;;;;;5025507;28;10682;-72
2020/12/21 13:53:52;;;;;;;;;10.00;10.00;;;;;;;;5024661;28;10949;-70
2020/12/21 13:56:19;;;;;;;;;11.00;11.00;;;;;;;;5024899;28;10908;-71
2020/12/21 13:58:47;;;;;;;;;12.75;12.50;;;;;;;;5022908;28;10956;-70
2020/12/21 14:01:16;;;;;;;;;11.75;11.75;;;;;;;;5016674;28;11412;-72
2020/12/21 14:03:42;;;;;;;;;12.75;12.75;;;;;;;;5017923;28;10985;-72
2020/12/21 14:06:09;;;;;;;;;12.25;12.25;;;;;;;;5023089;28;11023;-71
2020/12/21 14:08:36;;;;;;;;;11.00;11.00;;;;;;;;5022437;28;10639;-71
2020/12/21 14:11:03;;;;;;;;;8.75;8.75;;;;;;;;5022963;28;11284;-70
2020/12/21 14:13:30;;;;;;;;;9.50;8.75;;;;;;;;5018148;28;11203;-72
2020/12/21 14:15:58;;;;;;;;;10.25;10.25;;;;;;;;5029676;28;10479;-73
2020/12/21 14:18:25;;;;;;;;;9.50;8.00;;;;;;;;5020414;28;10411;-71
2020/12/21 14:20:51;;;;;;;;;10.00;10.00;;;;;;;;5023539;28;10262;-73
2020/12/21 14:23:19;;;;;;;;;7.25;7.25;;;;;;;;5024184;28;10315;-70
2020/12/21 14:25:46;;;;;;;;;7.00;6.25;;;;;;;;5022524;28;10175;-73
2020/12/21 14:28:13;;;;;;;;;6.25;6.25;;;;;;;;5023396;28;10114;-73
2020/12/21 14:30:39;;;;;;;;;7.00;6.25;;;;;;;;5008646;28;9900;-72
2020/12/21 14:33:07;;;;;;;;;7.00;7.00;;;;;;;;4991003;28;9967;-73
2020/12/21 14:35:34;;;;;;;;;6.75;4.50;;;;;;;;4991845;28;9783;-71
2020/12/21 14:38:01;;;;;;;;;3.25;3.25;;;;;;;;4990795;28;9724;-73
2020/12/21 14:40:27;;;;;;;;;7.50;6.25;;;;;;;;4991152;28;9625;-73
2020/12/21 14:42:54;;;;;;;;;8.00;6.00;;;;;;;;4989235;28;9534;-74
2020/12/21 14:45:21;;;;;;;;;9.00;9.00;;;;;;;;4986259;28;9619;-72
2020/12/21 14:47:49;;;;;;;;;6.00;6.00;;;;;;;;4985364;28;9752;-73